Time;durP1;ratioP1;P1;durP2;ratioP2;P2;SDS_P1;SDS_P2;PMS_P1;PMS_P2;Temp;Humidity;BMP_temperature;BMP_pressure;BME280_temperature;BME280_humidity;BME280_pressure;Samples;Min_cycle;Max_cycle;Signal;HPM_P1;HPM_P2
2021/10/11 00:02:04;;;;;;;35.78;16.75;;;;;;;3.45;82.89;101407.05;1719878;82;21061;-72
2021/10/11 00:04:31;;;;;;;27.52;14.50;;;;;;;3.44;83.38;101398.78;1717913;83;21073;-73
2021/10/11 00:06:57;;;;;;;35.55;16.77;;;;;;;3.41;82.50;101396.14;1717695;83;21534;-72
2021/10/11 00:09:24;;;;;;;32.73;17.62;;;;;;;3.38;82.42;101398.69;1689115;84;22205;-73
2021/10/11 00:11:52;;;;;;;32.03;16.50;;;;;;;3.35;83.03;101393.45;1688881;83;21151;-72
2021/10/11 00:14:20;;;;;;;38.33;18.05;;;;;;;3.33;82.75;101390.82;1688889;84;21640;-72
2021/10/11 00:16:46;;;;;;;36.85;17.92;;;;;;;3.33;83.76;101395.16;1689483;84;21132;-72
2021/10/11 00:19:13;;;;;;;30.05;16.07;;;;;;;3.33;84.12;101389.95;1689170;84;21064;-73
2021/10/11 00:21:40;;;;;;;39.10;19.57;;;;;;;3.33;84.87;101386.05;1689078;84;21144;-73
2021/10/11 00:24:06;;;;;;;31.68;14.55;;;;;;;3.32;85.75;101388.22;1689287;84;21138;-73
2021/10/11 00:26:33;;;;;;;36.63;17.40;;;;;;;3.29;85.15;101380.34;1688943;84;21564;-72
2021/10/11 00:29:00;;;;;;;33.10;17.57;;;;;;;3.31;85.82;101382.55;1689275;83;21549;-72
2021/10/11 00:31:26;;;;;;;34.03;16.20;;;;;;;3.30;86.04;101379.51;1688885;84;21571;-72
2021/10/11 00:33:53;;;;;;;40.35;17.27;;;;;;;3.28;85.59;101371.67;1688984;84;21076;-76
2021/10/11 00:36:19;;;;;;;30.00;14.83;;;;;;;3.25;85.66;101369.03;1689291;84;21570;-78
2021/10/11 00:38:46;;;;;;;39.40;19.65;;;;;;;3.23;85.45;101369.88;1688928;84;21592;-73
2021/10/11 00:41:13;;;;;;;39.35;20.08;;;;;;;3.21;85.83;101358.56;1685451;83;21578;-76
2021/10/11 00:43:41;;;;;;;39.67;17.17;;;;;;;3.13;85.12;101361.95;1683684;85;21120;-75
2021/10/11 00:46:07;;;;;;;35.35;19.75;;;;;;;3.08;84.52;101366.22;1684352;84;21650;-77
2021/10/11 00:48:35;;;;;;;37.78;20.65;;;;;;;3.04;84.87;101363.56;1683872;85;21152;-76
2021/10/11 00:51:04;;;;;;;41.48;21.17;;;;;;;2.97;84.40;101360.00;1684183;85;21057;-75
2021/10/11 00:53:33;;;;;;;38.27;18.93;;;;;;;2.92;84.51;101362.94;1684189;84;21125;-75
2021/10/11 00:56:00;;;;;;;38.15;17.62;;;;;;;2.87;85.24;101368.08;1683791;85;21120;-73
2021/10/11 00:58:26;;;;;;;37.55;18.65;;;;;;;2.86;85.23;101365.47;1700140;83;22197;-74
2021/10/11 01:00:54;;;;;;;29.77;14.80;;;;;;;2.80;85.18;101362.34;1712505;83;21764;-76
2021/10/11 01:03:22;;;;;;;32.98;17.60;;;;;;;2.77;86.06;101357.53;1712086;82;21077;-75
2021/10/11 01:05:48;;;;;;;38.67;19.48;;;;;;;2.78;87.21;101359.27;1712451;83;21608;-73
2021/10/11 01:08:14;;;;;;;31.82;16.97;;;;;;;2.75;87.79;101357.94;1712950;82;21061;-74
2021/10/11 01:10:46;;;;;;;42.80;20.60;;;;;;;2.70;87.44;101350.93;1705452;83;21065;-74
2021/10/11 01:13:13;;;;;;;46.25;21.80;;;;;;;2.68;87.29;101358.27;1702197;82;21123;-76
2021/10/11 01:15:41;;;;;;;41.33;19.92;;;;;;;2.59;86.97;101355.09;1702223;84;21081;-75
2021/10/11 01:18:08;;;;;;;39.35;18.37;;;;;;;2.50;86.51;101349.75;1702806;84;21049;-75
2021/10/11 01:20:35;;;;;;;27.45;13.13;;;;;;;2.41;86.39;101349.61;1704692;84;21069;-72
2021/10/11 01:23:02;;;;;;;40.35;19.17;;;;;;;2.33;86.51;101349.93;1705132;84;21021;-75
2021/10/11 01:25:29;;;;;;;42.10;20.20;;;;;;;2.29;86.91;101345.09;1702909;84;21057;-73
2021/10/11 01:27:56;;;;;;;41.00;19.90;;;;;;;2.26;87.61;101345.05;1702208;84;21025;-74
2021/10/11 01:30:23;;;;;;;39.35;20.52;;;;;;;2.20;87.38;101337.14;1702029;84;21596;-75
2021/10/11 01:32:49;;;;;;;29.92;15.23;;;;;;;2.15;88.00;101326.67;1702169;84;21588;-76
2021/10/11 01:35:16;;;;;;;43.08;19.77;;;;;;;2.11;87.98;101328.76;1702326;84;21093;-75
2021/10/11 01:37:44;;;;;;;34.60;18.67;;;;;;;2.12;88.78;101328.33;1702001;84;21486;-74
2021/10/11 01:40:11;;;;;;;31.50;15.10;;;;;;;2.09;90.04;101318.36;1700949;83;21639;-75
2021/10/11 01:42:38;;;;;;;41.20;18.42;;;;;;;2.06;89.64;101318.72;1702721;83;21629;-75
2021/10/11 01:45:06;;;;;;;31.73;15.78;;;;;;;2.06;90.45;101316.13;1673944;85;21120;-74
2021/10/11 01:47:34;;;;;;;35.52;16.35;;;;;;;2.04;90.56;101318.69;1710603;83;21061;-77
2021/10/11 01:50:00;;;;;;;36.65;17.52;;;;;;;2.02;90.67;101322.11;1673829;85;21829;-77
2021/10/11 01:52:26;;;;;;;32.33;16.17;;;;;;;2.03;91.58;101318.68;1710385;83;21635;-76
2021/10/11 01:54:53;;;;;;;39.45;20.60;;;;;;;1.98;91.19;101317.70;1710772;83;21061;-75
2021/10/11 01:57:19;;;;;;;40.43;18.75;;;;;;;1.96;91.47;101324.19;1710568;83;21435;-76
2021/10/11 01:59:46;;;;;;;32.23;16.32;;;;;;;1.93;91.58;101321.95;1710643;83;21030;-77
2021/10/11 02:02:12;;;;;;;40.43;19.77;;;;;;;1.88;91.40;101317.55;1711177;83;21336;-78
2021/10/11 02:04:39;;;;;;;29.15;14.28;;;;;;;1.86;92.13;101310.17;1673643;85;21159;-76
2021/10/11 02:07:05;;;;;;;37.78;16.82;;;;;;;1.83;91.55;101314.00;1664797;86;21125;-76
2021/10/11 02:09:32;;;;;;;35.68;17.80;;;;;;;1.82;91.75;101313.56;1646579;87;21089;-80
2021/10/11 02:11:59;;;;;;;35.48;15.03;;;;;;;1.78;91.72;101309.58;1665018;84;21120;-73
2021/10/11 02:14:26;;;;;;;34.98;17.10;;;;;;;1.75;91.63;101314.30;1633637;87;21698;-73
2021/10/11 02:16:54;;;;;;;44.08;20.45;;;;;;;1.72;92.03;101303.84;1710640;83;21046;-76
2021/10/11 02:19:20;;;;;;;39.05;19.15;;;;;;;1.66;91.41;101302.45;1710748;83;21690;-73
2021/10/11 02:21:47;;;;;;;37.10;19.37;;;;;;;1.54;90.84;101302.20;1710626;83;21092;-73
2021/10/11 02:24:13;;;;;;;29.27;15.15;;;;;;;1.43;90.89;101301.59;1710586;83;21068;-76
2021/10/11 02:26:40;;;;;;;36.55;18.75;;;;;;;1.35;90.73;101301.85;1710924;83;21159;-77
2021/10/11 02:29:07;;;;;;;33.80;17.12;;;;;;;1.33;91.28;101308.73;1710801;83;21044;-75
2021/10/11 02:31:33;;;;;;;39.73;18.02;;;;;;;1.32;91.42;101305.70;1710765;83;21089;-74
2021/10/11 02:34:00;;;;;;;35.85;18.87;;;;;;;1.28;91.32;101296.53;1710498;83;21065;-75
2021/10/11 02:36:27;;;;;;;42.95;20.88;;;;;;;1.22;91.25;101298.56;1710540;83;21567;-74
2021/10/11 02:38:54;;;;;;;43.30;20.15;;;;;;;1.11;91.08;101293.61;1710739;83;21165;-75
2021/10/11 02:41:21;;;;;;;40.63;18.80;;;;;;;1.08;91.40;101295.69;1711517;82;21117;-76
2021/10/11 02:43:48;;;;;;;28.05;15.30;;;;;;;1.08;91.89;101290.93;1712426;82;21055;-75
2021/10/11 02:46:16;;;;;;;43.38;20.77;;;;;;;1.07;92.05;101284.87;1712644;83;21558;-74
2021/10/11 02:48:43;;;;;;;40.43;20.37;;;;;;;1.05;92.13;101279.64;1712708;83;21036;-70
2021/10/11 02:51:11;;;;;;;42.48;20.65;;;;;;;1.03;92.06;101277.86;1714449;83;21125;-73
2021/10/11 02:53:38;;;;;;;37.65;19.35;;;;;;;1.00;92.17;101276.52;1713484;82;21244;-73
2021/10/11 02:56:05;;;;;;;41.30;19.95;;;;;;;0.99;92.60;101271.76;1713647;83;21145;-72
2021/10/11 02:58:31;;;;;;;40.65;18.75;;;;;;;0.93;92.19;101274.22;1712361;82;21023;-73
2021/10/11 03:00:58;;;;;;;34.43;15.53;;;;;;;0.85;91.89;101262.80;1712292;83;21121;-70
2021/10/11 03:03:24;;;;;;;39.33;18.82;;;;;;;0.79;92.00;101257.50;1720783;82;21131;-75
2021/10/11 03:05:51;;;;;;;38.05;19.65;;;;;;;0.72;92.19;101258.22;1717832;83;21125;-75
2021/10/11 03:08:20;;;;;;;46.35;20.80;;;;;;;0.72;92.19;101258.22;1712507;83;21051;-76
2021/10/11 03:10:46;;;;;;;36.63;19.12;;;;;;;0.63;92.02;101261.05;1712411;82;21048;-75
2021/10/11 03:13:14;;;;;;;40.20;19.35;;;;;;;0.59;92.04;101263.12;1712718;83;21126;-77
2021/10/11 03:15:40;;;;;;;35.48;18.80;;;;;;;0.50;92.20;101255.14;1712111;83;21151;-77
2021/10/11 03:18:07;;;;;;;40.65;21.23;;;;;;;0.44;92.58;101252.44;1712428;83;21079;-78
2021/10/11 03:20:33;;;;;;;48.83;22.40;;;;;;;0.39;92.71;101250.14;1712514;82;21060;-79
2021/10/11 03:23:00;;;;;;;40.03;21.12;;;;;;;0.31;92.84;101244.80;1712319;83;21020;-78
2021/10/11 03:25:27;;;;;;;42.60;20.88;;;;;;;0.28;93.24;101237.39;1712308;82;21067;-76
2021/10/11 03:27:53;;;;;;;39.30;20.90;;;;;;;0.28;93.52;101238.69;1712951;83;21137;-77
2021/10/11 03:30:20;;;;;;;42.38;22.00;;;;;;;0.26;93.83;101239.06;1712839;83;21031;-78
2021/10/11 03:32:46;;;;;;;46.18;23.73;;;;;;;0.25;94.17;101232.98;1712595;83;21079;-78
2021/10/11 03:35:13;;;;;;;52.80;24.23;;;;;;;0.24;94.42;101231.67;1712717;83;21078;-78
2021/10/11 03:37:40;;;;;;;48.73;23.45;;;;;;;0.29;94.91;101232.64;1712876;83;20999;-79
2021/10/11 03:40:08;;;;;;;47.83;23.22;;;;;;;0.34;95.07;101229.30;1715774;82;21152;-78
2021/10/11 03:42:35;;;;;;;57.17;24.75;;;;;;;0.41;95.18;101229.02;1716701;82;21004;-78
2021/10/11 03:45:02;;;;;;;51.55;25.15;;;;;;;0.47;95.44;101229.16;1714701;82;21050;-79
2021/10/11 03:47:29;;;;;;;50.38;23.57;;;;;;;0.57;95.67;101234.98;1713754;82;21058;-80
2021/10/11 03:49:56;;;;;;;48.52;22.60;;;;;;;0.57;95.67;101234.98;1713119;83;21118;-79
2021/10/11 03:52:22;;;;;;;43.30;22.35;;;;;;;0.63;95.48;101235.55;1713185;83;21808;-80
2021/10/11 03:54:50;;;;;;;43.02;22.30;;;;;;;0.65;94.64;101226.52;1712801;82;21048;-80
2021/10/11 03:57:16;;;;;;;51.48;22.73;;;;;;;0.65;94.64;101226.52;1701739;82;21061;-79
2021/10/11 03:59:42;;;;;;;44.85;21.73;;;;;;;0.60;94.57;101220.81;1698872;83;21049;-68
2021/10/11 04:02:09;;;;;;;48.45;23.15;;;;;;;0.58;94.34;101223.80;1695308;83;21062;-72
2021/10/11 04:04:36;;;;;;;38.48;17.30;;;;;;;0.58;94.37;101223.80;1710488;83;22023;-74
2021/10/11 04:07:09;;;;;;;48.65;23.30;;;;;;;0.56;94.81;101221.59;1701528;84;21070;-74
2021/10/11 04:09:32;;;;;;;52.50;22.90;;;;;;;0.56;94.81;101221.59;1702050;84;21065;-72
2021/10/11 04:12:06;;;;;;;49.73;24.50;;;;;;;0.55;94.66;101217.27;1701972;82;21090;-73
2021/10/11 04:14:27;;;;;;;52.48;24.70;;;;;;;0.57;94.76;101214.25;1702293;83;21109;-72
2021/10/11 04:16:54;;;;;;;45.25;19.95;;;;;;;0.55;94.87;101209.48;1702324;84;21053;-69
2021/10/11 04:19:20;;;;;;;48.98;20.48;;;;;;;0.56;94.71;101213.81;1704477;84;21037;-71
2021/10/11 04:21:46;;;;;;;58.70;25.25;;;;;;;0.63;95.16;101226.05;1706208;82;21013;-73
2021/10/11 04:24:14;;;;;;;40.90;19.42;;;;;;;0.68;95.60;101217.51;1706088;84;21040;-72
2021/10/11 04:26:40;;;;;;;52.23;22.55;;;;;;;0.68;95.60;101204.54;1705525;84;21335;-74
2021/10/11 04:29:07;;;;;;;51.28;23.07;;;;;;;0.70;95.92;101208.05;1706142;84;21163;-73
2021/10/11 04:31:34;;;;;;;45.55;21.90;;;;;;;0.71;95.75;101203.30;1704631;83;21100;-73
2021/10/11 04:34:00;;;;;;;42.53;20.95;;;;;;;0.72;95.41;101210.25;1705099;84;20927;-73
2021/10/11 04:36:26;;;;;;;46.37;21.27;;;;;;;0.70;95.43;101205.02;1705924;84;21076;-73
2021/10/11 04:38:53;;;;;;;36.42;20.82;;;;;;;0.68;94.95;101205.84;1702574;84;21092;-74
2021/10/11 04:41:19;;;;;;;44.18;22.42;;;;;;;0.62;94.94;101197.09;1712163;82;21134;-76
2021/10/11 04:43:46;;;;;;;36.20;18.70;;;;;;;0.66;95.11;101201.04;1711968;82;21092;-78
2021/10/11 04:46:13;;;;;;;42.85;21.80;;;;;;;0.69;95.32;101196.80;1732377;82;21136;-78
2021/10/11 04:48:39;;;;;;;47.95;20.50;;;;;;;0.69;95.32;101196.80;1706213;83;21619;-79
2021/10/11 04:51:06;;;;;;;47.53;21.30;;;;;;;0.71;94.66;101199.41;1705192;82;21014;-78
2021/10/11 04:53:34;;;;;;;42.65;21.57;;;;;;;0.66;94.38;101190.67;1738512;82;21903;-77
2021/10/11 04:56:01;;;;;;;44.83;19.35;;;;;;;0.63;94.28;101194.95;1728495;82;21535;-78
2021/10/11 04:58:28;;;;;;;49.48;21.45;;;;;;;0.62;94.08;101196.20;1732669;82;21137;-77
2021/10/11 05:00:57;;;;;;;44.85;19.77;;;;;;;0.64;94.52;101193.22;1715591;82;21092;-78
2021/10/11 05:03:24;;;;;;;57.05;20.45;;;;;;;0.77;94.80;101189.17;1726945;82;21073;-78
2021/10/11 05:05:51;;;;;;;58.98;22.62;;;;;;;0.77;94.80;101189.17;1730365;82;21526;-78
2021/10/11 05:08:18;;;;;;;45.60;17.00;;;;;;;0.89;95.02;101192.42;1727706;82;21517;-79
2021/10/11 05:10:44;;;;;;;66.55;25.08;;;;;;;0.89;95.02;101192.42;1737154;82;21478;-77
2021/10/11 05:13:12;;;;;;;57.05;23.83;;;;;;;1.36;96.10;101188.55;1740479;82;21259;-78
2021/10/11 05:15:41;;;;;;;50.10;22.13;;;;;;;1.36;96.10;101188.55;1733764;82;21044;-79
2021/10/11 05:18:07;;;;;;;52.98;22.98;;;;;;;2.05;96.44;101187.06;1731015;82;21141;-78
2021/10/11 05:20:34;;;;;;;46.80;19.02;;;;;;;2.85;95.46;101178.98;1730072;82;21034;-77
2021/10/11 05:23:01;;;;;;;40.85;19.40;;;;;;;3.68;93.14;101175.87;1734390;82;21049;-76
2021/10/11 05:25:28;;;;;;;43.70;21.17;;;;;;;4.50;89.92;101182.48;1733171;81;21049;-76
2021/10/11 05:27:55;;;;;;;43.25;21.82;;;;;;;5.30;87.33;101172.30;1727529;82;21037;-78
2021/10/11 05:30:21;;;;;;;46.30;22.22;;;;;;;6.08;82.76;101167.94;1728163;83;21124;-77
2021/10/11 05:32:47;;;;;;;64.32;28.00;;;;;;;6.73;78.31;101165.11;1717868;83;21080;-78
2021/10/11 05:35:14;;;;;;;52.85;27.45;;;;;;;7.33;76.85;101152.95;1726607;82;21065;-77
2021/10/11 05:37:41;;;;;;;58.78;25.40;;;;;;;8.00;73.39;101155.44;1726469;83;21037;-76
2021/10/11 05:40:10;;;;;;;53.20;25.52;;;;;;;8.65;71.18;101153.42;1728029;83;21068;-76
2021/10/11 05:42:41;;;;;;;54.05;23.90;;;;;;;9.29;68.16;101156.45;1735135;82;21170;-74
2021/10/11 05:45:09;;;;;;;39.60;21.73;;;;;;;9.93;64.92;101152.34;1734584;82;21065;-76
2021/10/11 05:47:38;;;;;;;43.45;22.42;;;;;;;10.46;62.87;101147.39;1735060;82;21057;-78
2021/10/11 05:50:09;;;;;;;46.88;21.82;;;;;;;11.08;61.08;101148.26;1734987;82;21030;-77
2021/10/11 05:52:36;;;;;;;52.88;23.27;;;;;;;11.67;59.00;101140.28;1719184;82;21033;-79
2021/10/11 05:55:03;;;;;;;58.40;27.17;;;;;;;12.27;56.77;101151.92;1718301;82;21014;-75
2021/10/11 05:57:32;;;;;;;59.80;27.25;;;;;;;12.86;54.57;101141.83;1718528;82;21426;-78
2021/10/11 05:59:59;;;;;;;63.13;27.05;;;;;;;13.35;52.92;101142.98;1713224;82;21109;-80
2021/10/11 06:02:26;;;;;;;70.20;29.45;;;;;;;13.86;50.79;101142.16;1715403;82;21050;-81
2021/10/11 06:04:52;;;;;;;79.03;31.65;;;;;;;14.38;48.96;101141.63;1718636;81;21630;-82
2021/10/11 06:07:19;;;;;;;78.37;30.25;;;;;;;14.82;46.68;101146.22;1725467;82;21192;-80
2021/10/11 06:09:46;;;;;;;69.60;30.02;;;;;;;15.02;44.78;101137.47;1715883;82;21081;-79
2021/10/11 06:12:13;;;;;;;73.95;31.33;;;;;;;15.19;43.54;101137.67;1720120;82;21329;-79
2021/10/11 06:14:39;;;;;;;80.32;32.95;;;;;;;15.39;43.53;101141.29;1721155;82;21737;-79
2021/10/11 06:17:07;;;;;;;83.30;33.33;;;;;;;15.64;39.26;101135.83;1726191;82;21037;-79
2021/10/11 06:19:33;;;;;;;86.65;33.53;;;;;;;15.65;39.45;101137.58;1730990;81;21089;-80
2021/10/11 06:22:00;;;;;;;74.17;31.55;;;;;;;15.70;38.38;101135.14;1720445;82;21071;-80
2021/10/11 06:24:27;;;;;;;64.95;28.52;;;;;;;15.88;38.86;101139.28;1700100;82;21040;-81
2021/10/11 06:26:53;;;;;;;72.03;29.80;;;;;;;16.31;36.68;101139.59;1716041;82;21125;-81
2021/10/11 06:29:20;;;;;;;62.95;28.52;;;;;;;16.44;35.96;101134.56;1718452;82;21084;-78
2021/10/11 06:31:46;;;;;;;69.80;30.37;;;;;;;16.46;33.98;101134.03;1726580;82;21130;-78
2021/10/11 06:34:13;;;;;;;60.95;28.23;;;;;;;16.28;35.33;101130.41;1727297;82;21057;-77
2021/10/11 06:36:39;;;;;;;54.67;27.10;;;;;;;16.36;34.26;101142.05;1727450;82;21314;-79
2021/10/11 06:39:05;;;;;;;60.65;28.23;;;;;;;16.41;35.15;101141.36;1726813;82;21033;-81
2021/10/11 06:41:32;;;;;;;57.40;27.25;;;;;;;16.76;34.36;101139.73;1727499;82;21073;-77
2021/10/11 06:43:59;;;;;;;49.98;26.10;;;;;;;17.03;34.07;101128.77;1733900;82;21130;-76
2021/10/11 06:46:25;;;;;;;57.33;25.75;;;;;;;17.24;33.36;101120.67;1740036;82;21042;-78
2021/10/11 06:48:51;;;;;;;58.28;26.12;;;;;;;17.29;32.15;101114.17;1733248;82;22187;-80
2021/10/11 06:51:18;;;;;;;50.38;24.80;;;;;;;17.24;32.77;101109.55;1732286;82;21611;-80
2021/10/11 06:53:46;;;;;;;50.48;25.40;;;;;;;17.43;32.52;101109.97;1726185;82;21135;-77
2021/10/11 06:56:12;;;;;;;38.92;22.95;;;;;;;17.82;32.16;101107.96;1726047;82;21129;-78
2021/10/11 06:58:38;;;;;;;43.98;22.45;;;;;;;18.06;31.79;101110.76;1698862;83;21171;-76
2021/10/11 07:01:05;;;;;;;39.75;23.57;;;;;;;18.39;30.90;101106.78;1725518;83;21116;-77
2021/10/11 07:03:33;;;;;;;43.42;22.73;;;;;;;18.81;30.93;101102.72;1734101;82;21029;-77
2021/10/11 07:06:03;;;;;;;51.85;24.72;;;;;;;19.23;30.26;101103.89;1729065;82;21082;-77
2021/10/11 07:08:28;;;;;;;49.10;24.77;;;;;;;19.70;29.44;101092.27;1690957;81;21111;-79
2021/10/11 07:10:56;;;;;;;40.58;22.60;;;;;;;20.06;29.10;101089.62;1721055;82;21079;-80
2021/10/11 07:13:24;;;;;;;39.78;21.02;;;;;;;20.38;28.10;101086.77;1702448;82;21096;-76
2021/10/11 07:15:52;;;;;;;39.85;22.00;;;;;;;20.61;28.16;101083.52;1716046;81;21178;-77
2021/10/11 07:18:19;;;;;;;32.80;21.73;;;;;;;20.89;27.82;101081.28;1737814;82;21069;-80
2021/10/11 07:20:46;;;;;;;38.50;22.20;;;;;;;20.99;26.87;101085.55;1725295;81;21498;-78
2021/10/11 07:23:13;;;;;;;33.70;19.77;;;;;;;21.04;27.43;101084.77;1718569;82;21049;-79
2021/10/11 07:25:41;;;;;;;41.00;21.25;;;;;;;21.41;26.73;101075.64;1730139;81;21129;-78
2021/10/11 07:28:08;;;;;;;40.38;20.48;;;;;;;21.87;25.97;101071.64;1723237;81;21066;-77
2021/10/11 07:30:35;;;;;;;45.88;21.57;;;;;;;21.92;25.87;101064.97;1707948;82;21082;-77
2021/10/11 07:33:03;;;;;;;47.23;23.45;;;;;;;22.13;25.59;101059.06;1694301;83;21873;-78
2021/10/11 07:35:30;;;;;;;35.13;20.30;;;;;;;22.22;24.67;101055.77;1724019;82;21060;-77
2021/10/11 07:37:57;;;;;;;34.33;18.70;;;;;;;22.06;24.89;101053.77;1725128;82;21134;-77
2021/10/11 07:40:24;;;;;;;36.15;19.00;;;;;;;22.12;24.40;101049.32;1705180;82;21048;-79
2021/10/11 07:42:50;;;;;;;36.08;19.42;;;;;;;21.83;23.97;101046.84;1730990;81;21014;-78
2021/10/11 07:45:18;;;;;;;40.15;20.23;;;;;;;21.55;24.17;101047.91;1730336;82;21136;-78
2021/10/11 07:47:45;;;;;;;39.25;20.57;;;;;;;21.54;25.27;101039.02;1732132;82;21049;-78
2021/10/11 07:50:12;;;;;;;39.60;19.02;;;;;;;22.11;25.11;101039.54;1731476;82;21057;-78
2021/10/11 07:52:39;;;;;;;41.77;21.33;;;;;;;22.54;24.01;101035.15;1731395;81;21100;-76
2021/10/11 07:55:07;;;;;;;35.30;19.20;;;;;;;22.58;23.64;101040.18;1725261;82;21076;-76
2021/10/11 07:57:34;;;;;;;44.40;21.68;;;;;;;22.64;23.54;101038.89;1716982;81;21769;-78
2021/10/11 08:00:05;;;;;;;40.33;21.15;;;;;;;22.63;23.67;101030.45;1728514;81;21070;-78
2021/10/11 08:02:32;;;;;;;42.58;21.37;;;;;;;22.62;23.23;101030.09;1719140;82;21553;-77
2021/10/11 08:04:58;;;;;;;47.67;23.87;;;;;;;22.68;23.34;101025.59;1712653;82;21558;-78
2021/10/11 08:07:25;;;;;;;44.65;22.93;;;;;;;22.72;23.69;101033.80;1719978;81;21198;-78
2021/10/11 08:09:51;;;;;;;40.90;22.60;;;;;;;22.97;24.30;101023.92;1720458;81;21161;-80
2021/10/11 08:12:18;;;;;;;37.63;20.15;;;;;;;23.58;23.01;101030.04;1707436;83;22326;-79
2021/10/11 08:14:46;;;;;;;52.75;23.47;;;;;;;23.87;23.44;101024.23;1712442;82;21021;-78
2021/10/11 08:17:13;;;;;;;44.83;22.07;;;;;;;24.14;22.03;101021.69;1707438;83;21295;-80
2021/10/11 08:19:40;;;;;;;37.83;17.50;;;;;;;24.26;21.60;101024.73;1728191;81;21548;-79
2021/10/11 08:22:07;;;;;;;30.48;15.20;;;;;;;24.22;22.58;101018.72;1715529;81;21079;-80
2021/10/11 08:24:34;;;;;;;29.95;14.83;;;;;;;24.17;20.70;101015.55;1721853;83;21118;-81
2021/10/11 08:27:01;;;;;;;23.75;12.58;;;;;;;23.99;21.21;101018.37;1726906;82;21047;-80
2021/10/11 08:29:27;;;;;;;26.97;13.28;;;;;;;23.63;20.73;101017.09;1718313;82;21020;-80
2021/10/11 08:31:55;;;;;;;35.58;14.15;;;;;;;23.46;20.97;101014.84;1714377;81;21191;-80
2021/10/11 08:34:22;;;;;;;28.17;13.15;;;;;;;23.31;21.64;101011.52;1714371;82;22049;-79
2021/10/11 08:36:49;;;;;;;26.85;12.30;;;;;;;23.33;21.24;101003.31;1714823;82;21045;-80
2021/10/11 08:39:15;;;;;;;31.23;12.88;;;;;;;23.09;22.09;101009.59;1722978;82;21065;-79
2021/10/11 08:41:44;;;;;;;36.42;13.43;;;;;;;23.02;21.52;101001.13;1717380;82;21111;-83
2021/10/11 08:44:12;;;;;;;19.92;10.88;;;;;;;23.07;21.29;101000.79;1721022;82;21134;-82
2021/10/11 08:46:44;;;;;;;32.30;11.43;;;;;;;22.97;23.05;101007.81;1725304;82;21102;-80
2021/10/11 08:49:11;;;;;;;41.10;13.70;;;;;;;23.23;21.79;101006.70;1714406;83;21028;-80
2021/10/11 08:51:38;;;;;;;48.28;15.03;;;;;;;23.77;22.35;100993.67;1715283;83;21078;-82
2021/10/11 08:54:06;;;;;;;28.40;12.53;;;;;;;24.01;21.00;100989.02;1711501;83;21094;-81
2021/10/11 08:56:33;;;;;;;40.75;14.93;;;;;;;23.87;21.08;100986.08;1698160;81;21348;-81
2021/10/11 08:59:03;;;;;;;52.00;15.83;;;;;;;23.95;21.35;100983.27;1713400;82;21827;-80
2021/10/11 09:01:30;;;;;;;32.45;14.47;;;;;;;24.16;20.71;100969.95;1714134;81;21031;-79
2021/10/11 09:03:57;;;;;;;28.70;12.07;;;;;;;24.11;21.01;100967.62;1717732;83;21282;-81
2021/10/11 09:06:23;;;;;;;32.85;13.72;;;;;;;23.76;20.64;100975.81;1709773;83;21050;-80
2021/10/11 09:08:50;;;;;;;32.48;14.10;;;;;;;23.64;21.16;100963.66;1726685;81;21112;-81
2021/10/11 09:11:17;;;;;;;45.20;16.87;;;;;;;23.46;22.67;100963.77;1715796;82;21081;-81
2021/10/11 09:13:48;;;;;;;40.73;15.72;;;;;;;23.25;21.97;100969.83;1722109;82;21062;-83
2021/10/11 09:17:05;;;;;;;44.90;15.72;;;;;;;23.33;21.99;100963.00;1708177;83;21054;-81
2021/10/11 09:18:55;;;;;;;35.98;14.55;;;;;;;23.61;22.46;100951.81;1700662;82;21037;-80
2021/10/11 09:21:35;;;;;;;31.85;14.35;;;;;;;24.13;21.31;100941.42;1708129;83;21157;-82
2021/10/11 09:24:08;;;;;;;;;;;;;;;24.28;20.71;100944.72;1720940;82;21137;-80
2021/10/11 09:26:52;;;;;;;21.57;12.63;;;;;;;23.83;20.95;100931.30;1712271;83;20200;-81
2021/10/11 09:29:35;;;;;;;24.00;12.95;;;;;;;23.58;21.29;100927.88;1708044;83;21075;-84
2021/10/11 09:32:09;;;;;;;31.10;14.05;;;;;;;23.41;21.27;100928.33;1709437;83;21086;-81
2021/10/11 09:34:41;;;;;;;28.32;14.18;;;;;;;23.24;22.10;100925.13;1720086;83;21156;-82
2021/10/11 09:37:10;;;;;;;26.77;13.90;;;;;;;23.20;21.34;100920.97;1716903;83;22141;-81
2021/10/11 09:39:38;;;;;;;31.82;13.75;;;;;;;23.22;22.33;100920.36;1717699;83;21114;-83
2021/10/11 09:42:08;;;;;;;34.23;14.18;;;;;;;23.77;21.62;100917.88;1725270;83;21128;-79
2021/10/11 09:44:36;;;;;;;19.67;11.88;;;;;;;24.02;21.12;100914.56;1711222;83;21843;-82
2021/10/11 09:47:08;;;;;;;23.15;11.50;;;;;;;23.98;21.01;100910.41;1712054;83;21087;-80
2021/10/11 09:49:32;;;;;;;23.42;11.80;;;;;;;23.59;21.18;100905.38;1699361;83;21145;-81
2021/10/11 09:51:58;;;;;;;21.70;11.57;;;;;;;23.83;20.99;100899.03;1716212;83;21054;-80
2021/10/11 09:54:26;;;;;;;23.70;11.50;;;;;;;23.92;21.16;100902.32;1717604;83;21067;-79
2021/10/11 09:56:53;;;;;;;20.70;10.78;;;;;;;24.07;21.04;100894.86;1707038;81;21496;-81
2021/10/11 09:59:19;;;;;;;18.67;9.73;;;;;;;24.11;20.78;100891.41;1638205;87;21169;-81
2021/10/11 10:01:47;;;;;;;20.70;10.28;;;;;;;23.79;20.94;100887.69;1637881;87;21448;-81
2021/10/11 10:04:27;;;;;;;15.80;9.25;;;;;;;23.55;21.19;100881.55;1639446;87;21116;-81
2021/10/11 10:06:56;;;;;;;18.30;9.50;;;;;;;23.20;21.80;100884.69;1637892;87;21173;-80
2021/10/11 10:09:24;;;;;;;21.75;9.55;;;;;;;23.12;21.79;100879.08;1637757;87;21234;-79
2021/10/11 10:11:52;;;;;;;15.68;9.48;;;;;;;23.26;21.76;100880.69;1636586;86;21106;-79
2021/10/11 10:14:22;;;;;;;13.78;8.78;;;;;;;23.27;21.96;100873.47;1637604;87;21223;-80
2021/10/11 10:16:53;;;;;;;14.53;8.80;;;;;;;23.31;21.54;100866.89;1637798;86;21271;-79
2021/10/11 10:19:38;;;;;;;12.55;7.87;;;;;;;23.20;21.74;100864.54;1638352;87;21098;-81
2021/10/11 10:22:17;;;;;;;14.85;7.80;;;;;;;23.29;21.69;100864.80;1636741;85;21127;-81
2021/10/11 10:24:44;;;;;;;11.83;7.80;;;;;;;23.59;21.67;100859.66;1638658;87;21553;-80
2021/10/11 10:27:13;;;;;;;13.90;7.70;;;;;;;23.70;21.09;100860.66;1638476;87;21179;-82
2021/10/11 10:29:46;;;;;;;12.63;7.47;;;;;;;23.45;21.68;100854.55;1624651;87;21044;-80
2021/10/11 10:32:18;;;;;;;13.75;7.87;;;;;;;23.43;21.46;100851.13;1639186;86;21016;-81
2021/10/11 10:34:47;;;;;;;16.00;7.85;;;;;;;23.35;21.57;100837.42;1636087;87;21120;-81
2021/10/11 10:37:15;;;;;;;26.17;9.68;;;;;;;23.24;21.98;100839.14;1639288;87;21101;-80
2021/10/11 10:39:47;;;;;;;15.08;7.85;;;;;;;23.47;22.27;100841.84;1638627;87;21117;-80
2021/10/11 10:42:30;;;;;;;15.90;7.97;;;;;;;23.73;21.86;100848.30;1639913;87;21031;-80
2021/10/11 10:44:58;;;;;;;12.28;7.60;;;;;;;23.91;21.10;100840.10;1626686;87;21539;-81
2021/10/11 10:47:38;;;;;;;15.88;8.03;;;;;;;23.91;22.25;100837.41;1597172;88;21019;-81
2021/10/11 10:50:16;;;;;;;16.67;8.00;;;;;;;24.43;21.51;100838.47;1622584;88;21120;-82
2021/10/11 10:52:53;;;;;;;15.65;7.00;;;;;;;24.63;20.62;100839.48;1618944;87;21614;-83
2021/10/11 10:58:04;;;;;;;13.58;6.72;;;;;;;24.06;21.02;100828.55;1744860;79;33976;-80
2021/10/11 11:00:31;;;;;;;13.18;7.22;;;;;;;23.36;21.51;100821.19;1681443;84;21239;-80
2021/10/11 11:02:57;;;;;;;16.17;7.00;;;;;;;23.09;23.10;100817.51;1681894;84;21138;-83
2021/10/11 11:05:27;;;;;;;12.78;7.65;;;;;;;23.21;22.15;100812.53;1679818;84;21067;-79
2021/10/11 11:07:55;;;;;;;14.25;7.70;;;;;;;23.56;21.75;100811.53;1676843;84;21071;-81
2021/10/11 11:10:28;;;;;;;12.68;7.60;;;;;;;23.38;21.78;100807.64;1680957;85;22330;-82
2021/10/11 11:13:06;;;;;;;9.95;7.37;;;;;;;23.18;21.90;100793.09;1683154;85;21055;-81
2021/10/11 11:15:41;;;;;;;13.18;7.60;;;;;;;23.04;22.65;100792.35;1684533;85;21223;-79
2021/10/11 11:18:14;;;;;;;19.25;8.38;;;;;;;22.88;22.38;100795.84;1681213;84;20917;-79
2021/10/11 11:20:42;;;;;;;9.30;6.97;;;;;;;22.54;22.74;100793.08;1682996;85;21080;-80